createdAt,value
2023-01-02T00:00:29.382Z,86
2023-01-02T00:01:36.263Z,86
2023-01-02T00:02:43.419Z,86
2023-01-02T00:03:51.410Z,86
2023-01-02T00:04:59.376Z,86
2023-01-02T00:06:06.823Z,86
2023-01-02T00:07:13.752Z,86
2023-01-02T00:08:20.851Z,85
2023-01-02T00:09:28.191Z,85
2023-01-02T00:10:35.143Z,85
2023-01-02T00:11:42.231Z,85
2023-01-02T00:12:49.359Z,85
2023-01-02T00:13:57.458Z,85
2023-01-02T00:15:05.563Z,86
2023-01-02T00:16:12.800Z,86
2023-01-02T00:17:20.099Z,86
2023-01-02T00:18:28.391Z,86
2023-01-02T00:19:35.261Z,86
2023-01-02T00:20:43.394Z,86
2023-01-02T00:21:51.359Z,86
2023-01-02T00:22:58.152Z,87
2023-01-02T00:24:05.236Z,87
2023-01-02T00:25:14.344Z,87
2023-01-02T00:26:21.833Z,87
2023-01-02T00:27:28.987Z,87
2023-01-02T00:28:36.110Z,86
2023-01-02T00:29:44.093Z,87
2023-01-02T00:30:52.480Z,86
2023-01-02T00:31:59.745Z,86
2023-01-02T00:33:07.024Z,87
2023-01-02T00:34:14.383Z,87
2023-01-02T00:35:21.743Z,87
2023-01-02T00:36:29.022Z,86
2023-01-02T00:37:35.913Z,87
2023-01-02T00:38:45.212Z,87
2023-01-02T00:39:53.337Z,87
2023-01-02T00:41:01.203Z,87
2023-01-02T00:42:08.958Z,87
2023-01-02T00:43:16.330Z,86
2023-01-02T00:44:23.330Z,86
2023-01-02T00:45:30.734Z,86
2023-01-02T00:46:38.205Z,86
2023-01-02T00:47:45.278Z,87
2023-01-02T00:48:53.783Z,87
2023-01-02T00:50:01.622Z,87
2023-01-02T00:51:09.252Z,86
2023-01-02T00:52:18.169Z,86
2023-01-02T00:53:26.226Z,87
2023-01-02T00:54:33.213Z,86
2023-01-02T00:55:40.330Z,86
2023-01-02T00:56:48.502Z,87
2023-01-02T00:57:57.104Z,87
2023-01-02T00:59:04.714Z,86
2023-01-02T01:00:13.242Z,86
2023-01-02T01:01:20.562Z,86
2023-01-02T01:02:28.670Z,86
2023-01-02T01:03:36.064Z,87
2023-01-02T01:04:42.997Z,87
2023-01-02T01:05:50.609Z,87
2023-01-02T01:06:58.750Z,87
2023-01-02T01:08:06.298Z,87
2023-01-02T01:09:13.550Z,87
2023-01-02T01:10:20.656Z,87
2023-01-02T01:11:27.928Z,86
2023-01-02T01:12:34.966Z,87
2023-01-02T01:13:42.479Z,87
2023-01-02T01:14:50.585Z,86
2023-01-02T01:15:58.418Z,87
2023-01-02T01:17:09.210Z,87
2023-01-02T01:18:16.313Z,87
2023-01-02T01:19:23.374Z,86
2023-01-02T01:20:34.565Z,87
2023-01-02T01:21:41.717Z,87
2023-01-02T01:22:48.789Z,87
2023-01-02T01:23:56.941Z,87
2023-01-02T01:25:04.965Z,87
2023-01-02T01:26:13.153Z,87
2023-01-02T01:27:20.529Z,87
2023-01-02T01:28:27.807Z,87
2023-01-02T01:29:34.774Z,87
2023-01-02T01:30:42.933Z,87
2023-01-02T01:31:50.328Z,87
2023-01-02T01:32:57.206Z,87
2023-01-02T01:34:04.324Z,87
2023-01-02T01:35:12.261Z,87
2023-01-02T01:36:19.564Z,87
2023-01-02T01:37:27.133Z,87
2023-01-02T01:38:34.425Z,87
2023-01-02T01:39:41.731Z,87
2023-01-02T01:40:48.817Z,87
2023-01-02T01:41:55.849Z,87
2023-01-02T01:43:02.870Z,87
2023-01-02T01:44:10.034Z,87
2023-01-02T01:45:20.069Z,87
2023-01-02T01:46:27.563Z,87
2023-01-02T01:47:40.385Z,88
2023-01-02T01:48:48.979Z,87
2023-01-02T01:50:04.947Z,87
2023-01-02T01:51:16.413Z,87
2023-01-02T01:52:23.590Z,87
2023-01-02T01:53:30.652Z,87
2023-01-02T01:54:37.672Z,87
2023-01-02T01:55:50.093Z,87
2023-01-02T01:56:57.173Z,87
2023-01-02T01:58:06.101Z,87
2023-01-02T01:59:13.640Z,87
2023-01-02T02:00:21.957Z,87
2023-01-02T02:01:29.308Z,87
2023-01-02T02:02:37.318Z,87
2023-01-02T02:03:46.137Z,87
2023-01-02T02:04:53.490Z,87
2023-01-02T02:06:00.689Z,87
2023-01-02T02:07:08.049Z,87
2023-01-02T02:08:15.238Z,87
2023-01-02T02:09:23.182Z,87
2023-01-02T02:10:40.981Z,87
2023-01-02T02:11:48.119Z,87
2023-01-02T02:12:57.272Z,87
2023-01-02T02:14:04.472Z,87
2023-01-02T02:15:11.632Z,86
2023-01-02T02:16:19.719Z,87
2023-01-02T02:17:27.145Z,86
2023-01-02T02:18:44.915Z,86
2023-01-02T02:19:57.913Z,87
2023-01-02T02:21:10.223Z,87
2023-01-02T02:22:27.625Z,87
2023-01-02T02:23:45.894Z,87
2023-01-02T02:25:00.144Z,86
2023-01-02T02:26:10.354Z,87
2023-01-02T02:27:24.373Z,86
2023-01-02T02:28:42.689Z,86
2023-01-02T02:29:57.787Z,87
2023-01-02T02:31:06.246Z,87
2023-01-02T02:32:23.628Z,87
2023-01-02T02:33:38.396Z,87
2023-01-02T02:34:50.674Z,87
2023-01-02T02:36:03.851Z,86
2023-01-02T02:37:21.313Z,86
2023-01-02T02:38:35.568Z,87
2023-01-02T02:39:52.871Z,87
2023-01-02T02:41:03.773Z,87
2023-01-02T02:42:11.366Z,87
2023-01-02T02:43:26.336Z,86
2023-01-02T02:44:43.661Z,86
2023-01-02T02:46:00.902Z,86
2023-01-02T02:47:08.029Z,85
2023-01-02T02:48:17.694Z,86
2023-01-02T02:49:25.377Z,86
2023-01-02T02:50:35.172Z,87
2023-01-02T02:51:43.067Z,87
2023-01-02T02:52:52.914Z,87
2023-01-02T02:54:05.493Z,87
2023-01-02T02:55:13.933Z,87
2023-01-02T02:56:27.026Z,87
2023-01-02T02:57:34.244Z,87
2023-01-02T02:58:41.376Z,87
2023-01-02T02:59:48.286Z,87
2023-01-02T03:00:55.773Z,87
2023-01-02T03:02:08.922Z,87
2023-01-02T03:03:22.935Z,87
2023-01-02T03:04:30.382Z,87
2023-01-02T03:05:38.373Z,87
2023-01-02T03:06:45.554Z,87
2023-01-02T03:08:03.772Z,87
2023-01-02T03:09:18.934Z,87
2023-01-02T03:10:33.601Z,87
2023-01-02T03:11:51.880Z,87
2023-01-02T03:13:04.232Z,87
2023-01-02T03:14:16.681Z,87
2023-01-02T03:15:29.765Z,87
2023-01-02T03:16:40.564Z,87
2023-01-02T03:17:49.017Z,87
2023-01-02T03:19:01.437Z,87
2023-01-02T03:20:13.927Z,87
2023-01-02T03:21:21.874Z,87
2023-01-02T03:22:35.193Z,87
2023-01-02T03:23:42.367Z,87
2023-01-02T03:24:49.543Z,87
2023-01-02T03:25:56.613Z,87
2023-01-02T03:27:03.861Z,87
2023-01-02T03:28:12.787Z,86
2023-01-02T03:29:19.898Z,87
2023-01-02T03:30:33.267Z,87
2023-01-02T03:31:41.667Z,87
2023-01-02T03:32:49.194Z,87
2023-01-02T03:34:02.950Z,86
2023-01-02T03:35:19.092Z,86
2023-01-02T03:36:27.242Z,86
2023-01-02T03:37:34.780Z,86
2023-01-02T03:38:42.097Z,86
2023-01-02T03:39:57.240Z,86
2023-01-02T03:41:05.745Z,86
2023-01-02T03:42:12.984Z,86
2023-01-02T03:43:21.350Z,86
2023-01-02T03:44:29.879Z,85
2023-01-02T03:45:50.099Z,86
2023-01-02T03:47:03.265Z,86
2023-01-02T03:48:15.839Z,86
2023-01-02T03:49:23.006Z,86
2023-01-02T03:50:36.060Z,85
2023-01-02T03:51:45.669Z,85
2023-01-02T03:52:53.238Z,85
2023-01-02T03:54:00.725Z,85
2023-01-02T03:55:07.766Z,85
2023-01-02T03:56:15.530Z,85
2023-01-02T03:57:32.039Z,85
2023-01-02T03:58:44.418Z,85
2023-01-02T03:59:59.686Z,85
2023-01-02T04:01:06.813Z,85
2023-01-02T04:02:14.475Z,85
2023-01-02T04:03:32.336Z,85
2023-01-02T04:04:50.328Z,85
2023-01-02T04:05:59.910Z,85
2023-01-02T04:07:08.782Z,85
2023-01-02T04:08:16.064Z,85
2023-01-02T04:09:23.100Z,85
2023-01-02T04:10:30.006Z,85
2023-01-02T04:11:38.132Z,85
2023-01-02T04:12:47.131Z,85
2023-01-02T04:13:55.769Z,85
2023-01-02T04:15:02.640Z,85
2023-01-02T04:16:10.312Z,85
2023-01-02T04:17:18.927Z,84
2023-01-02T04:18:26.896Z,84
2023-01-02T04:19:34.225Z,84
2023-01-02T04:20:47.955Z,84
2023-01-02T04:21:55.260Z,84
2023-01-02T04:23:03.510Z,84
2023-01-02T04:24:11.853Z,84
2023-01-02T04:25:24.349Z,85
2023-01-02T04:26:35.066Z,85
2023-01-02T04:27:53.802Z,85
2023-01-02T04:29:07.084Z,85
2023-01-02T04:30:14.649Z,85
2023-01-02T04:31:21.705Z,85
2023-01-02T04:32:37.566Z,86
2023-01-02T04:33:44.649Z,85
2023-01-02T04:34:54.612Z,85
2023-01-02T04:36:02.237Z,85
2023-01-02T04:37:12.322Z,85
2023-01-02T04:38:30.182Z,85
2023-01-02T04:39:36.902Z,85
2023-01-02T04:40:44.647Z,85
2023-01-02T04:41:51.856Z,85
2023-01-02T04:42:59.336Z,85
2023-01-02T04:44:07.387Z,85
2023-01-02T04:45:14.710Z,85
2023-01-02T04:46:21.785Z,85
2023-01-02T04:47:29.065Z,85
2023-01-02T04:48:36.322Z,85
2023-01-02T04:49:43.674Z,85
2023-01-02T04:50:50.782Z,85
2023-01-02T04:51:59.085Z,85
2023-01-02T04:53:07.529Z,85
2023-01-02T04:54:14.891Z,85
2023-01-02T04:55:22.588Z,85
2023-01-02T04:56:29.520Z,85
2023-01-02T04:57:36.853Z,85
2023-01-02T04:58:44.114Z,85
2023-01-02T04:59:51.222Z,85
2023-01-02T05:00:59.293Z,85
2023-01-02T05:02:06.542Z,85
2023-01-02T05:03:13.763Z,85
2023-01-02T05:04:22.642Z,84
2023-01-02T05:05:30.481Z,84
2023-01-02T05:06:38.630Z,84
2023-01-02T05:07:46.285Z,84
2023-01-02T05:08:55.426Z,84
2023-01-02T05:10:02.569Z,84
2023-01-02T05:11:11.297Z,84
2023-01-02T05:12:20.973Z,85
2023-01-02T05:13:28.249Z,85
2023-01-02T05:14:35.857Z,85
2023-01-02T05:15:43.050Z,86
2023-01-02T05:16:50.002Z,86
2023-01-02T05:17:57.070Z,87
2023-01-02T05:19:05.227Z,86
2023-01-02T05:20:14.079Z,87
2023-01-02T05:21:21.909Z,87
2023-01-02T05:22:35.712Z,87
2023-01-02T05:23:47.974Z,87
2023-01-02T05:24:55.928Z,86
2023-01-02T05:26:04.414Z,86
2023-01-02T05:27:17.872Z,87
2023-01-02T05:28:25.195Z,86
2023-01-02T05:29:33.311Z,87
2023-01-02T05:30:40.427Z,86
2023-01-02T05:31:47.766Z,86
2023-01-02T05:32:55.890Z,86
2023-01-02T05:34:02.963Z,86
2023-01-02T05:35:09.963Z,87
2023-01-02T05:36:18.191Z,87
2023-01-02T05:37:27.175Z,87
2023-01-02T05:38:34.377Z,87
2023-01-02T05:39:41.588Z,87
2023-01-02T05:40:48.747Z,87
2023-01-02T05:42:03.926Z,87
2023-01-02T05:43:11.092Z,87
2023-01-02T05:44:18.363Z,87
2023-01-02T05:45:25.523Z,87
2023-01-02T05:46:33.665Z,86
2023-01-02T05:47:40.874Z,87
2023-01-02T05:48:48.471Z,87
2023-01-02T05:49:55.405Z,87
2023-01-02T05:51:03.213Z,86
2023-01-02T05:52:10.171Z,86
2023-01-02T05:53:19.385Z,86
2023-01-02T05:54:26.728Z,86
2023-01-02T05:55:33.832Z,86
2023-01-02T05:56:41.588Z,86
2023-01-02T05:57:49.361Z,86
2023-01-02T05:58:59.993Z,85
2023-01-02T06:00:06.870Z,85
2023-01-02T06:01:15.090Z,85
2023-01-02T06:02:22.404Z,85
2023-01-02T06:03:29.624Z,85
2023-01-02T06:04:36.845Z,85
2023-01-02T06:05:45.296Z,85
2023-01-02T06:06:52.159Z,86
2023-01-02T06:08:00.040Z,85
2023-01-02T06:09:06.946Z,85
2023-01-02T06:10:16.668Z,85
2023-01-02T06:11:23.860Z,85
2023-01-02T06:12:30.904Z,85
2023-01-02T06:13:38.592Z,85
2023-01-02T06:14:45.736Z,85
2023-01-02T06:15:53.653Z,85
2023-01-02T06:17:00.772Z,85
2023-01-02T06:18:09.919Z,85
2023-01-02T06:19:17.164Z,85
2023-01-02T06:20:24.410Z,85
2023-01-02T06:21:31.498Z,85
2023-01-02T06:22:39.524Z,85
2023-01-02T06:23:47.324Z,85
2023-01-02T06:24:58.351Z,85
2023-01-02T06:26:07.531Z,85
2023-01-02T06:27:15.641Z,85
2023-01-02T06:28:22.535Z,85
2023-01-02T06:29:30.771Z,85
2023-01-02T06:30:37.808Z,85
2023-01-02T06:31:50.993Z,86
2023-01-02T06:32:52.597Z,86
2023-01-02T06:34:01.365Z,87
2023-01-02T06:35:08.647Z,86
2023-01-02T06:36:16.284Z,86
2023-01-02T06:37:24.082Z,86
2023-01-02T06:38:32.113Z,86
2023-01-02T06:39:39.934Z,86
2023-01-02T06:40:47.074Z,87
2023-01-02T06:42:00.184Z,88
2023-01-02T06:43:07.343Z,87
2023-01-02T06:44:14.663Z,87
2023-01-02T06:45:22.686Z,87
2023-01-02T06:46:29.972Z,87
2023-01-02T06:47:37.340Z,87
2023-01-02T06:48:46.266Z,87
2023-01-02T06:49:53.265Z,87
2023-01-02T06:51:01.176Z,87
2023-01-02T06:52:08.739Z,87
2023-01-02T06:53:15.681Z,87
2023-01-02T06:54:22.855Z,87
2023-01-02T06:55:30.303Z,87
2023-01-02T06:56:39.128Z,87
2023-01-02T06:57:46.203Z,88
2023-01-02T06:58:54.232Z,87
2023-01-02T07:00:03.053Z,87
2023-01-02T07:01:10.923Z,87
2023-01-02T07:02:18.134Z,87
2023-01-02T07:03:25.093Z,88
2023-01-02T07:04:32.987Z,87
2023-01-02T07:05:40.336Z,88
2023-01-02T07:06:47.432Z,88
2023-01-02T07:07:55.304Z,88
2023-01-02T07:09:02.804Z,87
2023-01-02T07:10:09.840Z,87
2023-01-02T07:11:17.117Z,88
2023-01-02T07:12:24.083Z,88
2023-01-02T07:13:31.179Z,88
2023-01-02T07:14:38.325Z,88
2023-01-02T07:15:46.688Z,87
2023-01-02T07:16:53.810Z,87
2023-01-02T07:18:01.739Z,87
2023-01-02T07:19:08.902Z,87
2023-01-02T07:20:16.043Z,87
2023-01-02T07:21:23.146Z,87
2023-01-02T07:22:30.387Z,88
2023-01-02T07:23:37.473Z,88
2023-01-02T07:24:45.661Z,88
2023-01-02T07:25:52.908Z,88
2023-01-02T07:27:00.108Z,87
2023-01-02T07:28:08.402Z,88
2023-01-02T07:29:17.709Z,88
2023-01-02T07:30:25.896Z,87
2023-01-02T07:31:34.023Z,87
2023-01-02T07:32:42.301Z,87
2023-01-02T07:33:50.288Z,87
2023-01-02T07:34:57.552Z,88
2023-01-02T07:36:04.678Z,88
2023-01-02T07:37:13.027Z,88
2023-01-02T07:38:20.447Z,88
2023-01-02T07:39:27.923Z,88
2023-01-02T07:40:36.290Z,88
2023-01-02T07:41:43.509Z,87
2023-01-02T07:42:53.369Z,87
2023-01-02T07:44:01.760Z,87
2023-01-02T07:45:09.960Z,88
2023-01-02T07:46:17.142Z,87
2023-01-02T07:47:25.047Z,88
2023-01-02T07:48:32.330Z,88
2023-01-02T07:49:39.456Z,88
2023-01-02T07:50:46.399Z,88
2023-01-02T07:51:54.510Z,88
2023-01-02T07:53:01.912Z,88
2023-01-02T07:54:08.876Z,88
2023-01-02T07:55:15.867Z,88
2023-01-02T07:56:23.216Z,88
2023-01-02T07:57:30.481Z,88
2023-01-02T07:58:37.324Z,88
2023-01-02T07:59:45.619Z,88
2023-01-02T08:00:52.602Z,88
2023-01-02T08:02:00.653Z,88
2023-01-02T08:03:07.428Z,87
2023-01-02T08:04:15.529Z,87
2023-01-02T08:05:23.364Z,87
2023-01-02T08:06:30.336Z,87
2023-01-02T08:07:42.855Z,87
2023-01-02T08:08:44.515Z,87
2023-01-02T08:09:51.597Z,87
2023-01-02T08:10:58.877Z,88
2023-01-02T08:12:08.899Z,87
2023-01-02T08:13:16.219Z,87
2023-01-02T08:14:23.843Z,88
2023-01-02T08:15:32.214Z,87
2023-01-02T08:16:40.567Z,87
2023-01-02T08:17:48.028Z,87
2023-01-02T08:18:55.379Z,87
2023-01-02T08:20:07.415Z,87
2023-01-02T08:21:10.011Z,87
2023-01-02T08:22:17.390Z,87
2023-01-02T08:23:26.639Z,87
2023-01-02T08:24:34.388Z,87
2023-01-02T08:25:42.498Z,87
2023-01-02T08:26:49.903Z,87
2023-01-02T08:27:56.867Z,87
2023-01-02T08:29:04.575Z,87
2023-01-02T08:30:11.787Z,87
2023-01-02T08:31:20.150Z,86
2023-01-02T08:32:27.253Z,87
2023-01-02T08:33:36.295Z,87
2023-01-02T08:34:43.585Z,86
2023-01-02T08:35:51.071Z,87
2023-01-02T08:36:58.047Z,87
2023-01-02T08:38:05.158Z,87
2023-01-02T08:39:13.101Z,87
2023-01-02T08:40:20.066Z,87
2023-01-02T08:41:27.043Z,86
2023-01-02T08:42:38.143Z,86
2023-01-02T08:43:45.503Z,87
2023-01-02T08:44:52.392Z,86
2023-01-02T08:46:00.469Z,86
2023-01-02T08:47:07.695Z,86
2023-01-02T08:48:20.097Z,86
2023-01-02T08:49:23.894Z,86
2023-01-02T08:50:32.785Z,86
2023-01-02T08:51:40.854Z,86
2023-01-02T08:52:49.075Z,86
2023-01-02T08:53:56.935Z,86
2023-01-02T08:55:03.806Z,86
2023-01-02T08:56:11.328Z,86
2023-01-02T08:57:25.038Z,86
2023-01-02T08:58:33.665Z,86
2023-01-02T08:59:41.265Z,85
2023-01-02T09:00:49.256Z,86
2023-01-02T09:01:56.546Z,85
2023-01-02T09:03:03.686Z,85
2023-01-02T09:04:12.667Z,85
2023-01-02T09:05:18.654Z,86
2023-01-02T09:06:25.752Z,85
2023-01-02T09:07:32.911Z,85
2023-01-02T09:08:41.439Z,85
2023-01-02T09:09:49.147Z,85
2023-01-02T09:10:56.618Z,85
2023-01-02T09:12:04.926Z,85
2023-01-02T09:13:12.398Z,85
2023-01-02T09:14:20.071Z,85
2023-01-02T09:15:27.130Z,85
2023-01-02T09:16:34.859Z,85
2023-01-02T09:17:41.859Z,85
2023-01-02T09:18:49.152Z,85
2023-01-02T09:19:56.007Z,84
2023-01-02T09:21:03.904Z,85
2023-01-02T09:22:11.559Z,84
2023-01-02T09:23:18.527Z,85
2023-01-02T09:24:25.534Z,84
2023-01-02T09:25:34.335Z,84
2023-01-02T09:26:42.581Z,85
2023-01-02T09:27:51.533Z,84
2023-01-02T09:28:58.662Z,84
2023-01-02T09:30:06.002Z,84
2023-01-02T09:31:13.547Z,84
2023-01-02T09:32:20.997Z,84
2023-01-02T09:33:29.145Z,84
2023-01-02T09:34:36.386Z,84
2023-01-02T09:35:43.403Z,84
2023-01-02T09:36:51.468Z,84
2023-01-02T09:37:58.602Z,84
2023-01-02T09:39:05.894Z,84
2023-01-02T09:40:12.811Z,84
2023-01-02T09:41:20.563Z,84
2023-01-02T09:42:35.356Z,83
2023-01-02T09:43:42.720Z,83
2023-01-02T09:44:50.357Z,83
2023-01-02T09:45:58.771Z,83
2023-01-02T09:47:05.925Z,83
2023-01-02T09:48:19.026Z,83
2023-01-02T09:49:27.233Z,83
2023-01-02T09:50:35.562Z,83
2023-01-02T09:51:42.727Z,82
2023-01-02T09:52:50.238Z,82
2023-01-02T09:53:57.793Z,82
2023-01-02T09:55:05.032Z,82
2023-01-02T09:56:22.814Z,82
2023-01-02T09:57:31.634Z,82
2023-01-02T09:58:39.431Z,81
2023-01-02T09:59:54.281Z,81
2023-01-02T10:01:06.416Z,81
2023-01-02T10:02:13.647Z,81
2023-01-02T10:03:28.562Z,81
2023-01-02T10:04:41.166Z,81
2023-01-02T10:05:56.327Z,81
2023-01-02T10:07:10.489Z,81
2023-01-02T10:08:31.648Z,80
2023-01-02T10:09:35.713Z,81
2023-01-02T10:10:54.175Z,81
2023-01-02T10:12:09.443Z,80
2023-01-02T10:13:20.097Z,81
2023-01-02T10:14:44.116Z,81
2023-01-02T10:15:50.947Z,80
2023-01-02T10:16:58.489Z,80
2023-01-02T10:18:05.523Z,80
2023-01-02T10:19:18.872Z,80
2023-01-02T10:20:26.801Z,80
2023-01-02T10:21:33.939Z,79
2023-01-02T10:22:41.293Z,79
2023-01-02T10:23:55.358Z,79
2023-01-02T10:25:11.448Z,79
2023-01-02T10:26:23.964Z,78
2023-01-02T10:27:31.401Z,79
2023-01-02T10:28:44.567Z,79
2023-01-02T10:30:03.071Z,79
2023-01-02T10:31:18.711Z,79
2023-01-02T10:32:31.972Z,78
2023-01-02T10:33:40.261Z,78
2023-01-02T10:34:56.599Z,79
2023-01-02T10:36:06.654Z,79
2023-01-02T10:37:14.073Z,78
2023-01-02T10:38:21.044Z,78
2023-01-02T10:39:28.182Z,78
2023-01-02T10:40:35.225Z,78
2023-01-02T10:41:42.269Z,78
2023-01-02T10:42:53.304Z,78
2023-01-02T10:43:57.489Z,78
2023-01-02T10:45:04.623Z,78
2023-01-02T10:46:11.983Z,77
2023-01-02T10:47:18.989Z,77
2023-01-02T10:48:32.498Z,77
2023-01-02T10:49:40.641Z,77
2023-01-02T10:50:48.583Z,77
2023-01-02T10:51:56.693Z,76
2023-01-02T10:53:07.159Z,76
2023-01-02T10:54:24.696Z,77
2023-01-02T10:55:33.002Z,76
2023-01-02T10:56:44.036Z,76
2023-01-02T10:57:51.097Z,76
2023-01-02T10:58:58.352Z,75
2023-01-02T11:00:05.882Z,75
2023-01-02T11:01:29.047Z,75
2023-01-02T11:02:38.743Z,75
2023-01-02T11:03:45.693Z,75
2023-01-02T11:04:53.663Z,75
2023-01-02T11:06:23.469Z,75
2023-01-02T11:07:11.443Z,75
2023-01-02T11:08:18.810Z,75
2023-01-02T11:09:27.768Z,75
2023-01-02T11:10:36.511Z,75
2023-01-02T11:11:45.680Z,75
2023-01-02T11:12:53.311Z,74
2023-01-02T11:14:00.653Z,74
2023-01-02T11:15:12.767Z,74
2023-01-02T11:16:19.865Z,74
2023-01-02T11:17:26.904Z,74
2023-01-02T11:18:35.558Z,74
2023-01-02T11:19:42.783Z,74
2023-01-02T11:20:55.866Z,74
2023-01-02T11:22:04.492Z,74
2023-01-02T11:23:11.667Z,74
2023-01-02T11:24:18.910Z,74
2023-01-02T11:25:26.903Z,74
2023-01-02T11:26:37.530Z,74
2023-01-02T11:27:45.336Z,73
2023-01-02T11:28:53.301Z,74
2023-01-02T11:30:00.730Z,74
2023-01-02T11:31:08.678Z,74
2023-01-02T11:32:16.774Z,74
2023-01-02T11:33:27.338Z,74
2023-01-02T11:34:35.737Z,73
2023-01-02T11:35:43.009Z,74
2023-01-02T11:36:56.202Z,74
2023-01-02T11:38:09.324Z,73
2023-01-02T11:39:19.369Z,73
2023-01-02T11:40:27.605Z,73
2023-01-02T11:41:34.758Z,73
2023-01-02T11:42:52.037Z,73
2023-01-02T11:44:07.297Z,73
2023-01-02T11:45:16.334Z,73
2023-01-02T11:46:23.775Z,73
2023-01-02T11:47:33.713Z,74
2023-01-02T11:48:53.858Z,73
2023-01-02T11:50:03.794Z,73
2023-01-02T11:51:17.335Z,73
2023-01-02T11:52:20.621Z,72
2023-01-02T11:53:28.285Z,72
2023-01-02T11:54:37.913Z,73
2023-01-02T11:55:48.151Z,73
2023-01-02T11:56:55.560Z,73
2023-01-02T11:58:03.287Z,73
2023-01-02T11:59:14.448Z,73
2023-01-02T12:00:29.768Z,73
2023-01-02T12:01:37.049Z,73
2023-01-02T12:02:55.728Z,73
2023-01-02T12:04:08.002Z,72
2023-01-02T12:05:16.266Z,72
2023-01-02T12:06:33.535Z,72
2023-01-02T12:07:50.925Z,72
2023-01-02T12:08:57.780Z,72
2023-01-02T12:10:13.755Z,72
2023-01-02T12:11:31.011Z,73
2023-01-02T12:12:43.143Z,72
2023-01-02T12:13:55.622Z,73
2023-01-02T12:15:02.479Z,72
2023-01-02T12:16:17.865Z,72
2023-01-02T12:17:32.574Z,72
2023-01-02T12:18:48.816Z,72
2023-01-02T12:20:03.523Z,71
2023-01-02T12:21:14.292Z,71
2023-01-02T12:22:26.534Z,71
2023-01-02T12:23:43.886Z,71
2023-01-02T12:24:55.962Z,72
2023-01-02T12:26:09.531Z,71
2023-01-02T12:27:15.392Z,71
2023-01-02T12:28:27.734Z,71
2023-01-02T12:29:45.905Z,71
2023-01-02T12:30:55.258Z,71
2023-01-02T12:32:13.009Z,71
2023-01-02T12:33:25.319Z,71
2023-01-02T12:34:38.378Z,71
2023-01-02T12:35:50.768Z,71
2023-01-02T12:37:03.729Z,71
2023-01-02T12:38:23.028Z,71
2023-01-02T12:39:35.990Z,71
2023-01-02T12:40:53.360Z,71
2023-01-02T12:42:05.457Z,71
2023-01-02T12:43:20.977Z,71
2023-01-02T12:44:33.837Z,71
2023-01-02T12:45:46.079Z,72
2023-01-02T12:47:00.924Z,72
2023-01-02T12:48:10.600Z,71
2023-01-02T12:49:28.004Z,71
2023-01-02T12:50:43.997Z,71
2023-01-02T12:51:53.558Z,71
2023-01-02T12:53:05.567Z,72
2023-01-02T12:54:23.175Z,72
2023-01-02T12:55:38.318Z,71
2023-01-02T12:56:55.904Z,71
2023-01-02T12:58:08.164Z,71
2023-01-02T12:59:23.045Z,71
2023-01-02T13:00:35.289Z,71
2023-01-02T13:01:47.500Z,71
2023-01-02T13:03:02.604Z,71
2023-01-02T13:04:14.940Z,71
2023-01-02T13:05:21.987Z,71
2023-01-02T13:06:43.237Z,71
2023-01-02T13:07:46.462Z,71
2023-01-02T13:08:58.526Z,70
2023-01-02T13:10:16.102Z,71
2023-01-02T13:11:23.000Z,71
2023-01-02T13:12:33.531Z,70
2023-01-02T13:13:40.423Z,70
2023-01-02T13:14:48.462Z,70
2023-01-02T13:16:11.358Z,70
2023-01-02T13:17:12.969Z,70
2023-01-02T13:18:25.384Z,70
2023-01-02T13:19:32.505Z,70
2023-01-02T13:20:47.702Z,71
2023-01-02T13:21:54.919Z,71
2023-01-02T13:23:12.900Z,70
2023-01-02T13:24:25.296Z,70
2023-01-02T13:25:32.500Z,70
2023-01-02T13:26:39.551Z,71
2023-01-02T13:27:46.715Z,71
2023-01-02T13:28:53.711Z,71
2023-01-02T13:30:03.535Z,71
2023-01-02T13:31:44.578Z,71
2023-01-02T13:32:18.070Z,71
2023-01-02T13:33:30.022Z,71
2023-01-02T13:34:42.333Z,71
2023-01-02T13:35:54.724Z,71
2023-01-02T13:37:01.525Z,71
2023-01-02T13:38:08.746Z,71
2023-01-02T13:39:15.992Z,71
2023-01-02T13:40:22.903Z,71
2023-01-02T13:41:30.119Z,72
2023-01-02T13:42:38.500Z,71
2023-01-02T13:43:50.448Z,72
2023-01-02T13:45:00.616Z,72
2023-01-02T13:46:08.148Z,72
2023-01-02T13:47:19.264Z,71
2023-01-02T13:48:22.124Z,71
2023-01-02T13:49:34.324Z,72
2023-01-02T13:50:41.449Z,72
2023-01-02T13:51:48.866Z,72
2023-01-02T13:52:55.760Z,72
2023-01-02T13:54:14.213Z,72
2023-01-02T13:55:20.595Z,72
2023-01-02T13:56:30.546Z,72
2023-01-02T13:57:38.317Z,72
2023-01-02T13:58:46.333Z,72
2023-01-02T14:00:02.570Z,72
2023-01-02T14:01:20.464Z,72
2023-01-02T14:02:27.636Z,72
2023-01-02T14:03:34.351Z,72
2023-01-02T14:04:41.540Z,72
2023-01-02T14:05:48.816Z,73
2023-01-02T14:07:01.367Z,73
2023-01-02T14:08:18.628Z,72
2023-01-02T14:09:30.938Z,73
2023-01-02T14:10:38.124Z,73
2023-01-02T14:11:56.177Z,73
2023-01-02T14:12:55.383Z,73
2023-01-02T14:14:02.686Z,73
2023-01-02T14:15:17.718Z,73
2023-01-02T14:16:28.439Z,73
2023-01-02T14:17:35.979Z,74
2023-01-02T14:18:49.009Z,73
2023-01-02T14:20:06.923Z,73
2023-01-02T14:21:23.388Z,73
2023-01-02T14:22:30.568Z,74
2023-01-02T14:23:37.755Z,73
2023-01-02T14:24:45.032Z,73
2023-01-02T14:25:52.038Z,74
2023-01-02T14:26:59.207Z,74
2023-01-02T14:28:09.270Z,74
2023-01-02T14:29:16.415Z,74
2023-01-02T14:30:23.548Z,74
2023-01-02T14:31:33.704Z,74
2023-01-02T14:32:40.935Z,74
2023-01-02T14:33:48.124Z,74
2023-01-02T14:34:55.253Z,74
2023-01-02T14:36:02.155Z,74
2023-01-02T14:37:12.415Z,75
2023-01-02T14:38:27.147Z,75
2023-01-02T14:39:34.881Z,75
2023-01-02T14:40:41.893Z,75
2023-01-02T14:41:49.042Z,76
2023-01-02T14:43:01.223Z,76
2023-01-02T14:44:13.524Z,76
2023-01-02T14:45:20.504Z,76
2023-01-02T14:46:27.617Z,76
2023-01-02T14:47:34.268Z,76
2023-01-02T14:48:41.322Z,76
2023-01-02T14:49:56.188Z,76
2023-01-02T14:51:03.331Z,77
2023-01-02T14:52:10.356Z,78
2023-01-02T14:53:17.719Z,78
2023-01-02T14:54:27.804Z,78
2023-01-02T14:55:42.735Z,78
2023-01-02T14:56:49.808Z,78
2023-01-02T14:57:59.775Z,78
2023-01-02T14:59:07.042Z,78
2023-01-02T15:00:19.207Z,78
2023-01-02T15:01:41.847Z,78
2023-01-02T15:02:43.919Z,79
2023-01-02T15:03:50.962Z,78
2023-01-02T15:05:00.504Z,78
2023-01-02T15:06:12.411Z,78
2023-01-02T15:07:24.330Z,78
2023-01-02T15:08:33.156Z,78
2023-01-02T15:09:44.966Z,78
2023-01-02T15:10:55.044Z,79
2023-01-02T15:12:05.271Z,79
2023-01-02T15:13:28.240Z,79
2023-01-02T15:14:35.283Z,78
2023-01-02T15:15:43.137Z,78
2023-01-02T15:16:49.920Z,78
2023-01-02T15:18:00.177Z,79
2023-01-02T15:19:07.225Z,79
2023-01-02T15:20:14.369Z,79
2023-01-02T15:21:24.579Z,79
2023-01-02T15:22:29.671Z,79
2023-01-02T15:23:36.911Z,79
2023-01-02T15:24:46.591Z,79
2023-01-02T15:26:32.174Z,80
2023-01-02T15:27:00.649Z,80
2023-01-02T15:28:15.492Z,80
2023-01-02T15:29:28.012Z,80
2023-01-02T15:30:35.976Z,80
2023-01-02T15:31:43.116Z,80
2023-01-02T15:32:58.339Z,81
2023-01-02T15:34:05.599Z,81
2023-01-02T15:35:12.568Z,81
2023-01-02T15:36:24.848Z,80
2023-01-02T15:37:42.427Z,81
2023-01-02T15:38:49.352Z,81
2023-01-02T15:39:56.464Z,81
2023-01-02T15:41:03.503Z,81
2023-01-02T15:42:12.539Z,82
2023-01-02T15:43:24.328Z,82
2023-01-02T15:44:36.611Z,82
2023-01-02T15:45:48.820Z,82
2023-01-02T15:46:56.012Z,82
2023-01-02T15:48:03.012Z,82
2023-01-02T15:49:11.212Z,82
2023-01-02T15:50:19.322Z,82
2023-01-02T15:51:39.926Z,82
2023-01-02T15:52:33.655Z,82
2023-01-02T15:53:41.643Z,82
2023-01-02T15:54:49.043Z,82
2023-01-02T15:55:56.172Z,82
2023-01-02T15:57:03.329Z,82
2023-01-02T15:58:15.327Z,83
2023-01-02T15:59:22.762Z,82
2023-01-02T16:00:33.053Z,82
2023-01-02T16:01:40.619Z,83
2023-01-02T16:02:47.777Z,83
2023-01-02T16:04:00.990Z,82
2023-01-02T16:05:01.631Z,83
2023-01-02T16:06:08.795Z,83
2023-01-02T16:07:26.611Z,82
2023-01-02T16:08:37.851Z,82
2023-01-02T16:09:40.972Z,83
2023-01-02T16:10:51.187Z,83
2023-01-02T16:11:55.352Z,83
2023-01-02T16:13:02.514Z,83
2023-01-02T16:14:09.553Z,83
2023-01-02T16:15:21.827Z,83
2023-01-02T16:16:28.941Z,83
2023-01-02T16:17:41.496Z,84
2023-01-02T16:18:48.323Z,84
2023-01-02T16:19:58.723Z,84
2023-01-02T16:21:04.914Z,84
2023-01-02T16:22:12.109Z,84
2023-01-02T16:23:19.431Z,85
2023-01-02T16:24:26.981Z,84
2023-01-02T16:25:34.208Z,84
2023-01-02T16:26:41.204Z,85
2023-01-02T16:27:48.254Z,85